Weather observations for the past three days for
Rochester Fulton County Airport
Metric (Imperial)
Date Time (edt) Wind (kph) Vis. (km) Weather Sky Cond. Temperature (ºC) Relative Humidity Wind Chill (°C) Heat Index (°C) Pressure Precipitation (cm)
Air Dwpt 6 hour altimeter (cm) sea level (mb) 1 hr 3 hr 6 hr
Max. Min.
08 00:15 S 9 16.09 Fair CLR 8 7 93% 7 75.92 0.0
07 23:55 S 9 16.09 Fair CLR 8 7 93% 7 75.92 0.0
07 23:35 S 7 16.09 Fair CLR 7 7 100% 6 75.95 0.0
07 23:15 S 6 16.09 Fair CLR 8 8 100% 75.95 0.0
07 22:55 S 7 16.09 Fair CLR 8 8 100% 7 75.95 0.0
07 22:35 S 7 16.09 Fair CLR 8 8 100% 7 75.95 0.0
07 22:15 Calm 16.09 A Few Clouds FEW055 FEW070 8 7 93% 75.95 0.0
07 21:55 S 6 16.09 Mostly Cloudy FEW030 SCT046 BKN070 8 7 93% 75.95 0.0 0.36
07 21:35 NW 13 G 35 4.02 Rain Fog/Mist FEW004 SCT028 BKN034 8 7 93% 6 75.95 0.0
07 21:15 W 17 G 28 8.05 Light Rain Haze FEW005 SCT020 BKN044 11 6 72% 75.9 0.0
07 20:55 S 17 G 28 16.09 Thunderstorm in Vicinity SCT075 OVC090 11 6 72% 75.82 0.0
07 20:35 S 19 16.09 Overcast FEW055 SCT070 OVC090 12 5 63% 75.84 0.0
07 20:15 S 17 G 28 16.09 Partly Cloudy FEW060 SCT075 12 5 63% 75.87 0.0
07 19:55 SW 19 16.09 Fair CLR 12 4 58% 75.87 0.0
07 19:35 SW 24 16.09 A Few Clouds FEW060 FEW100 13 4 55% 75.87 0.0
07 19:15 SW 22 16.09 Partly Cloudy SCT070 SCT075 12 4 58% 75.9 0.0
07 18:55 SW 20 G 35 16.09 Overcast OVC070 12 3 54% 75.92 0.0
07 18:35 SW 19 G 28 16.09 Overcast BKN070 OVC090 12 3 54% 75.95 0.0
07 18:15 SW 22 16.09 Mostly Cloudy BKN075 BKN090 12 3 54% 75.95 0.0
07 17:55 W 17 16.09 Mostly Cloudy BKN080 BKN100 13 2 47% 75.95 0.0
07 17:35 W 17 G 31 16.09 Partly Cloudy FEW049 FEW055 SCT075 12 2 51% 75.97 0.0
07 17:15 NW 15 16.09 Light Rain FEW038 SCT044 BKN055 12 1 47% 76 0.0
07 16:55 W 19 G 28 16.09 Light Rain FEW042 SCT050 SCT060 12 1 47% 76 0.0
07 16:35 W 13 G 26 16.09 A Few Clouds FEW055 12 1 47% 75.97 0.0
07 16:15 W 19 G 37 16.09 Partly Cloudy FEW050 SCT065 13 0 41% 76 0.0
07 15:55 W 24 G 41 16.09 Mostly Cloudy FEW048 SCT060 BKN070 13 -1 38% 76.02 0.0
07 15:35 W 19 G 30 16.09 Mostly Cloudy FEW060 BKN070 BKN080 14 -2 33% 76 0.0
07 15:15 W 17 G 30 16.09 Mostly Cloudy SCT075 BKN090 14 -1 36% 76 0.0
07 14:55 W 22 16.09 Mostly Cloudy FEW070 BKN090 14 -2 33% 76 0.0
07 14:35 W 20 G 30 16.09 Partly Cloudy FEW070 SCT080 SCT090 15 -1 34% 76.02 0.0
07 14:15 W 17 G 35 16.09 Partly Cloudy SCT070 14 -2 33% 76.02 0.0
07 13:55 W 19 16.09 A Few Clouds FEW070 14 -1 36% 76.05 0.0
07 13:35 NW 17 G 31 16.09 A Few Clouds FEW065 13 -2 36% 76.07 0.0
07 13:15 Vrbl 9 G 28 16.09 Fair CLR 13 -2 36% 76.1 0.0
07 12:55 SW 17 16.09 Fair CLR 12 -1 41% 76.12 0.0
07 12:35 NW 13 G 26 16.09 Fair CLR 12 -2 38% 76.15 0.0
07 12:15 NW 19 G 30 16.09 Fair CLR 12 -2 38% 76.17 0.0
07 11:55 Vrbl 11 G 33 16.09 Fair CLR 11 -2 41% 76.2 0.0
07 11:35 W 17 G 33 16.09 Fair CLR 11 -2 41% 76.17 0.0
07 11:15 NW 13 G 39 16.09 Fair CLR 10 -2 43% 8 76.17 0.0
07 10:55 NW 20 16.09 Fair CLR 10 -2 43% 8 76.17 0.0
07 10:35 W 19 G 30 16.09 Fair CLR 10 -2 43% 8 76.17 0.0
07 10:15 W 17 G 26 16.09 Fair CLR 9 -3 43% 7 76.17 0.0
07 09:55 W 17 16.09 Fair CLR 9 -2 46% 7 76.17 0.0
07 09:35 W 19 16.09 Fair CLR 8 -2 50% 5 76.2 0.0
07 09:15 W 11 16.09 Fair CLR 7 -1 57% 5 76.2 0.0
07 08:55 Vrbl 9 16.09 Fair CLR 7 0 61% 5 76.2 0.0
07 08:35 W 11 16.09 Fair CLR 6 0 66% 4 76.17 0.0
07 08:15 W 9 16.09 Fair CLR 6 -1 61% 4 76.17 0.0
07 07:55 W 9 16.09 Fair CLR 5 0 70% 3 76.17 0.0
07 07:35 W 9 16.09 Fair CLR 4 -1 70% 2 76.17 0.0
07 07:15 W 7 16.09 Fair CLR 3 -1 75% 1 76.15 0.0
07 06:55 W 9 16.09 Fair CLR 3 -1 75% 1 76.15 0.0
07 06:35 W 9 16.09 Fair CLR 3 -1 75% 1 76.15 0.0
07 06:15 W 7 16.09 Fair CLR 3 -1 75% 1 76.15 0.0
07 05:55 W 9 16.09 Fair CLR 4 -1 70% 2 76.15 0.0
07 05:35 W 9 16.09 Fair CLR 4 -2 65% 2 76.12 0.0
07 05:15 W 7 16.09 Fair CLR 4 -1 70% 2 76.15 0.0
07 04:55 W 9 16.09 Fair CLR 4 -1 70% 2 76.15 0.0
07 04:35 W 9 16.09 Fair CLR 4 -2 65% 2 76.15 0.0
07 04:15 W 7 16.09 Fair CLR 4 -1 70% 2 76.15 0.0
07 03:55 W 7 16.09 Fair CLR 4 -1 70% 2 76.15 0.0
07 03:15 W 7 16.09 Fair CLR 5 -1 66% 4 76.15 0.0
07 02:55 W 7 16.09 Fair CLR 5 -1 66% 4 76.15 0.0
07 02:35 W 7 16.09 Fair CLR 6 -1 61% 5 76.15 0.0
07 02:15 W 7 16.09 Fair CLR 6 -1 61% 5 76.15 0.0
07 01:55 NW 13 16.09 Fair CLR 6 -1 61% 4 76.15 0.0
07 01:35 NW 11 16.09 Fair CLR 6 -1 61% 4 76.15 0.0
07 01:15 NW 9 16.09 Fair CLR 6 0 66% 4 76.15 0.0
07 00:55 NW 9 16.09 Fair CLR 6 0 66% 4 76.15 0.0
07 00:35 W 11 16.09 Fair CLR 7 -1 57% 5 76.15 0.0
07 00:15 W 9 16.09 Fair CLR 7 -1 57% 5 76.12 0.0
06 23:55 W 9 16.09 Fair CLR 8 -1 53% 7 76.12 0.0
06 23:35 W 9 16.09 Fair CLR 8 -1 53% 7 76.12 0.0
06 23:15 W 11 16.09 Fair CLR 8 -1 53% 6 76.12 0.0
06 22:55 W 9 16.09 Fair CLR 9 -1 50% 8 76.12 0.0
06 22:35 Vrbl 7 16.09 Fair CLR 9 0 54% 8 76.1 0.0
06 22:15 W 7 16.09 Partly Cloudy SCT075 10 -1 47% 9 76.1 0.0
06 21:55 W 9 16.09 Partly Cloudy SCT075 10 -1 47% 9 76.07 0.0
06 21:35 W 13 16.09 Partly Cloudy SCT075 10 0 50% 8 76.07 0.0
06 21:15 Vrbl 9 16.09 Mostly Cloudy BKN075 11 0 47% 76.07 0.0
06 20:55 W 9 G 22 16.09 Partly Cloudy SCT080 11 0 47% 76.07 0.0
06 20:35 W 11 G 22 16.09 Mostly Cloudy BKN075 BKN120 11 -1 44% 76.02 0.0
06 20:15 W 13 G 24 16.09 Mostly Cloudy FEW065 BKN075 BKN120 12 -1 41% 76.02 0.0
06 19:55 Vrbl 13 16.09 Mostly Cloudy FEW065 BKN075 12 -1 41% 76 0.0
06 19:35 W 11 G 24 16.09 Mostly Cloudy SCT065 BKN075 12 -1 41% 76.02 0.0
06 19:10 W 13 16.09 Mostly Cloudy BKN065 BKN075 13 -1 38% 76.02 0.0
06 18:55 W 13 16.09 Mostly Cloudy SCT070 BKN075 12 -1 41% 76.02 0.0
06 18:35 Vrbl 11 G 24 16.09 Mostly Cloudy BKN075 13 -1 38% 76.02 0.0
06 18:15 W 15 G 26 16.09 Mostly Cloudy BKN070 13 -2 36% 76.02 0.0
06 17:55 W 13 G 22 16.09 A Few Clouds FEW065 FEW080 13 -1 38% 76 0.0
06 17:35 W 19 16.09 A Few Clouds FEW070 FEW080 13 -1 38% 76 0.0
06 17:15 W 15 16.09 Partly Cloudy SCT070 SCT080 13 -1 38% 76 0.0
06 16:55 W 19 G 28 16.09 Overcast BKN070 OVC075 13 -1 38% 76.02 0.0
06 16:35 NW 13 G 24 16.09 Overcast BKN065 OVC075 13 -2 36% 76.02 0.0
06 16:15 NW 9 G 20 16.09 Mostly Cloudy BKN065 BKN075 13 -1 38% 76.02 0.0
06 15:55 Vrbl 6 G 24 16.09 Mostly Cloudy BKN060 BKN075 14 0 39% 76.02 0.0
06 15:35 W 9 G 24 16.09 Partly Cloudy SCT065 SCT075 13 -2 36% 76.02 0.0
06 15:15 W 15 G 28 16.09 Fair CLR 13 -1 38% 76.05 0.0
06 14:55 W 15 16.09 Fair CLR 13 -1 38% 76.05 0.0
06 14:35 NW 17 16.09 A Few Clouds FEW065 13 -2 36% 76.05 0.0
06 14:15 Vrbl 9 16.09 Fair CLR 12 -3 35% 76.07 0.0
06 13:55 Calm 16.09 Fair CLR 12 -2 38% 76.07 0.0
06 13:35 SE 6 16.09 A Few Clouds FEW110 12 -2 38% 76.07 0.0
06 13:15 NW 9 G 20 16.09 Fair CLR 12 -2 38% 76.05 0.0
06 12:55 NW 9 16.09 Fair CLR 12 -1 41% 76.05 0.0
06 12:35 Vrbl 9 16.09 Fair CLR 11 -2 41% 76.05 0.0
06 12:15 N 7 16.09 Fair CLR 11 -2 41% 76.07 0.0
06 11:55 Calm 16.09 Fair CLR 11 -1 44% 76.07 0.0
06 11:15 N 11 16.09 Fair CLR 10 -1 47% 9 76.07 0.0
06 10:55 Vrbl 11 16.09 Fair CLR 10 -2 43% 9 76.07 0.0
06 10:35 N 11 16.09 Fair CLR 10 -2 43% 9 76.05 0.0
06 10:15 NE 11 16.09 Fair CLR 10 -3 40% 9 76.02 0.0
06 09:55 NE 9 16.09 Fair CLR 9 0 54% 8 76.02 0.0
06 09:35 Vrbl 9 16.09 Fair CLR 9 0 54% 8 76.02 0.0
06 09:15 Vrbl 7 16.09 Fair CLR 9 1 58% 8 76 0.0
06 08:55 NE 11 16.09 Fair CLR 9 2 62% 8 75.97 0.0
06 08:35 NE 9 16.09 Fair CLR 8 2 66% 7 75.95 0.0
06 08:15 Vrbl 7 16.09 Fair CLR 7 1 66% 6 75.92 0.0
06 07:55 N 7 16.09 Fair CLR 7 3 76% 6 75.92 0.0
06 07:35 N 6 16.09 Fair CLR 6 3 81% 75.9 0.0
06 07:15 Calm 16.09 Fair CLR 6 4 87% 75.9 0.0
06 06:55 N 6 16.09 Fair CLR 6 4 87% 75.84 0.0
06 06:35 N 7 16.09 A Few Clouds FEW055 6 4 87% 5 75.82 0.0
06 06:15 N 9 16.09 Mostly Cloudy BKN055 6 5 93% 4 75.79 0.0
06 05:55 N 7 14.48 A Few Clouds FEW060 6 6 100% 5 75.79 0.0
06 05:35 N 7 12.87 Fair CLR 7 7 100% 6 75.79 0.0
06 05:15 Calm 11.27 Partly Cloudy SCT090 7 7 100% 75.79 0.0
06 04:55 Calm 16.09 Overcast OVC085 8 7 93% 75.79 0.0
06 04:35 Calm 14.48 Overcast OVC080 8 7 93% 75.79 0.0
06 04:15 Calm 16.09 Overcast OVC080 8 7 93% 75.74 0.0
06 03:55 Calm 14.48 Overcast OVC080 8 8 100% 75.74 0.0
06 03:35 N 7 12.87 Overcast FEW003 OVC080 8 8 100% 7 75.74 0.0
06 03:15 N 7 14.48 Overcast FEW003 OVC075 8 8 100% 7 75.72 0.0
06 02:55 Calm 16.09 Overcast OVC075 8 7 93% 75.74 0.0
06 02:35 Calm 16.09 Overcast OVC075 8 7 93% 75.72 0.0
06 02:15 Calm 16.09 Overcast FEW055 OVC070 8 7 93% 75.72 0.0
06 01:55 Calm 16.09 Overcast FEW049 SCT055 OVC070 8 6 87% 75.77 0.0
06 01:15 S 6 16.09 Overcast FEW055 BKN060 OVC075 8 7 93% 75.77 0.0
06 00:55 Calm 16.09 Overcast BKN060 OVC070 8 6 87% 75.77 0.0
06 00:35 Calm 16.09 Overcast OVC065 8 6 87% 75.79 0.0
06 00:15 Calm 16.09 Overcast OVC070 8 7 93% 75.74 0.0
05 23:55 Calm 16.09 Overcast OVC070 8 7 93% 75.74 0.0
05 23:35 Calm 16.09 Overcast OVC075 8 7 93% 75.74 0.0
05 23:15 Calm 16.09 Overcast OVC075 8 7 93% 75.74 0.0
05 22:55 Calm 16.09 Overcast OVC075 8 7 93% 75.74 0.0
05 22:35 Calm 16.09 Overcast OVC075 8 8 100% 75.74 0.0
05 22:15 Calm 16.09 Overcast OVC075 8 7 93% 75.72 0.0
05 21:55 Calm 16.09 Overcast OVC070 8 7 93% 75.72 0.0
05 21:35 SE 7 16.09 Overcast OVC070 8 6 87% 7 75.69 0.0
05 21:15 SE 9 16.09 Overcast OVC070 9 6 82% 8 75.69 0.0
05 20:55 SE 7 16.09 Overcast OVC065 8 6 87% 7 75.69 0.0
05 20:35 Calm 16.09 Overcast FEW055 OVC070 8 6 87% 75.67 0.0
05 20:15 Calm 16.09 Overcast FEW055 OVC075 8 7 93% 75.67 0.0
05 19:55 NE 7 16.09 Mostly Cloudy BKN075 BKN095 8 6 87% 7 75.64 0.0 0.05
05 19:35 N 7 16.09 Light Rain CLR 9 6 82% 8 75.64 0.0
05 19:10 Calm 6.44 Light Rain Fog/Mist CLR 10 10 100% 75.67 0.0
05 18:55 Calm 6.44 Light Rain Fog/Mist CLR 10 9 94% 75.67 0.0 0.03
05 18:35 W 7 16.09 Light Rain FEW033 10 9 94% 9 75.69 0.0
05 18:15 SW 9 16.09 Light Rain FEW034 SCT060 10 9 94% 9 75.67 0.0
05 17:55 SW 11 16.09 Light Rain BKN060 BKN075 9 9 100% 8 75.69 0.0 0.03
05 17:35 SW 9 16.09 Mostly Cloudy FEW055 BKN075 9 9 100% 8 75.69 0.0
05 17:15 SW 9 14.48 Light Rain CLR 9 9 100% 8 75.69 0.0
05 16:55 SW 7 6.44 Light Rain Fog/Mist CLR 9 8 94% 8 75.69 0.0 0.1
05 16:35 S 7 8.05 Light Rain Fog/Mist CLR 9 8 94% 8 75.67 0.0
05 16:15 Calm 9.66 Light Rain Haze SCT050 SCT075 10 7 82% 75.67 0.0
05 15:35 Calm 12.87 Light Rain SCT075 10 6 76% 75.69 0.0
05 15:15 N 7 16.09 Overcast OVC075 10 6 76% 9 75.69 0.0
05 14:55 Vrbl 7 16.09 Overcast OVC070 10 5 71% 9 75.72 0.0
05 14:35 Calm 16.09 Overcast OVC070 9 5 76% 75.72 0.0
05 14:15 Calm 16.09 Overcast OVC075 9 5 76% 75.72 0.0
05 13:55 Vrbl 9 16.09 Overcast BKN080 OVC090 9 5 76% 8 75.72 0.0
05 13:35 Vrbl 9 16.09 Mostly Cloudy BKN090 9 5 76% 8 75.72 0.0
05 13:15 N 9 16.09 A Few Clouds FEW080 9 5 76% 8 75.72 0.0
05 12:55 N 17 16.09 Mostly Cloudy BKN080 9 5 76% 7 75.72 0.0
05 12:35 N 19 16.09 Light Rain CLR 9 5 76% 7 75.72 0.0
05 12:15 N 11 16.09 Light Rain CLR 9 4 71% 8 75.69 0.0
05 11:55 NW 11 16.09 Partly Cloudy SCT075 9 3 66% 8 75.69 0.0
05 11:35 Vrbl 7 16.09 Overcast OVC075 10 3 62% 9 75.67 0.0
05 11:15 N 15 16.09 Overcast OVC075 10 2 58% 8 75.67 0.0
05 10:55 Vrbl 9 G 19 16.09 Overcast OVC075 10 3 62% 9 75.67 0.0
05 10:35 N 11 16.09 Overcast OVC080 10 3 62% 9 75.69 0.0
05 10:15 NW 13 16.09 Mostly Cloudy BKN080 10 4 67% 8 75.72 0.0
05 09:55 NW 13 16.09 Light Rain BKN080 10 4 67% 8 75.72 0.0
05 09:35 N 17 16.09 Overcast OVC080 10 3 62% 8 75.69 0.0
05 09:15 NW 15 G 24 16.09 Overcast OVC080 10 4 67% 8 75.69 0.0
05 08:55 N 13 G 28 16.09 Mostly Cloudy BKN075 11 4 62% 75.59 0.0
05 08:35 N 6 16.09 Fair CLR 11 6 72% 75.51 0.0
05 08:15 N 13 16.09 A Few Clouds FEW015 11 6 72% 75.49 0.0
05 07:55 N 13 16.09 Partly Cloudy SCT015 12 10 88% 75.44 0.0
05 07:35 NW 7 16.09 Fair CLR 12 11 94% 75.46 0.0
05 07:15 W 11 16.09 Fair CLR 12 11 94% 75.46 0.0
05 06:55 Vrbl 9 16.09 Fair CLR 12 12 100% 75.44 0.0
05 06:35 W 13 G 24 16.09 A Few Clouds FEW080 FEW090 12 12 100% 75.44 0.0
05 06:15 W 13 16.09 Mostly Cloudy BKN080 BKN090 13 12 94% 75.39 0.0
05 05:55 W 13 16.09 Overcast OVC075 13 12 94% 75.36 0.0
05 05:35 W 11 G 22 16.09 Overcast OVC075 13 12 94% 75.34 0.0
05 05:15 SW 11 16.09 Mostly Cloudy BKN080 13 12 94% 75.34 0.0
05 04:55 SW 13 16.09 Fair CLR 13 12 94% 75.34 0.0
05 04:35 SW 9 16.09 Partly Cloudy SCT065 13 13 100% 75.31 0.0
05 04:15 SW 13 16.09 Overcast OVC065 13 13 100% 75.29 0.0
05 03:55 SW 15 16.09 Overcast OVC070 13 13 100% 75.26 0.0
05 03:35 SW 13 G 24 16.09 Overcast OVC070 13 13 100% 75.29 0.0
05 03:15 S 20 16.09 Mostly Cloudy SCT070 BKN090 13 13 100% 75.29 0.0
05 02:55 S 15 G 24 16.09 Mostly Cloudy BKN095 13 13 100% 75.29 0.0
05 02:35 S 17 G 28 16.09 A Few Clouds FEW095 13 13 100% 75.29 0.0
05 02:15 S 13 16.09 Fair CLR 13 13 100% 75.23 0.0
05 01:55 S 11 G 24 16.09 Mostly Cloudy SCT075 BKN085 13 13 100% 75.21 0.0 0.33
05 01:35 SW 15 6.44 Light Rain Fog/Mist FEW025 FEW041 OVC070 13 13 100% 75.29 0.0
05 01:15 SW 13 G 28 6.44 Rain Fog/Mist FEW005 FEW034 BKN070 13 13 100% 75.34 0.0
05 00:55 SW 13 4.83 Thunderstorm in Vicinity Rain Fog/Mist FEW004 SCT060 BKN075 14 13 94% 75.31 0.0 0.36
Date Time (edt) Wind (kph) Vis. (km) Weather Sky Cond. Air Dwpt Max. Min. Relative Humidity Wind Chill (°C) Heat Index (°C) altimeter (cm) sea level (mb) 1 hr 3 hr 6 hr
6 hour
Temperature (ºC) Pressure Precipitation (cm)